createdAt,value
2019-03-30T00:00:33.738Z,11.83
2019-03-30T00:03:03.226Z,12.03
2019-03-30T00:05:32.600Z,12.17
2019-03-30T00:08:03.008Z,12.03
2019-03-30T00:10:32.406Z,12.57
2019-03-30T00:13:01.923Z,13.23
2019-03-30T00:15:31.271Z,12.33
2019-03-30T00:18:01.393Z,11.73
2019-03-30T00:20:30.774Z,11.67
2019-03-30T00:23:00.110Z,12.47
2019-03-30T00:25:29.530Z,13.47
2019-03-30T00:27:59.065Z,13.27
2019-03-30T00:30:28.408Z,11.30
2019-03-30T00:32:57.969Z,12.60
2019-03-30T00:35:28.282Z,13.40
2019-03-30T00:37:57.728Z,14.67
2019-03-30T00:40:27.167Z,12.33
2019-03-30T00:42:56.916Z,11.57
2019-03-30T00:45:26.250Z,12.43
2019-03-30T00:47:55.692Z,13.97
2019-03-30T00:50:25.114Z,13.63
2019-03-30T00:52:54.551Z,11.97
2019-03-30T00:55:23.959Z,12.73
2019-03-30T00:57:53.529Z,11.73
2019-03-30T01:00:23.002Z,12.07
2019-03-30T01:02:52.360Z,13.40
2019-03-30T01:05:22.008Z,11.70
2019-03-30T01:07:51.579Z,13.30
2019-03-30T01:10:21.322Z,13.70
2019-03-30T01:12:50.734Z,12.13
2019-03-30T01:15:20.467Z,12.93
2019-03-30T01:17:49.882Z,12.87
2019-03-30T01:20:19.265Z,13.27
2019-03-30T01:22:48.595Z,11.07
2019-03-30T01:25:18.164Z,11.70
2019-03-30T01:27:47.555Z,13.57
2019-03-30T01:30:23.340Z,12.00
2019-03-30T01:32:48.372Z,12.53
2019-03-30T01:35:17.960Z,12.03
2019-03-30T01:37:47.509Z,12.43
2019-03-30T01:40:18.086Z,12.07
2019-03-30T01:42:47.551Z,12.67
2019-03-30T01:45:17.010Z,12.50
2019-03-30T01:47:46.328Z,13.37
2019-03-30T01:50:17.627Z,13.50
2019-03-30T01:52:47.227Z,12.50
2019-03-30T01:55:16.958Z,13.13
2019-03-30T01:57:46.354Z,12.47
2019-03-30T02:00:16.794Z,12.50
2019-03-30T02:02:46.281Z,14.27
2019-03-30T02:05:15.990Z,12.27
2019-03-30T02:07:45.361Z,13.67
2019-03-30T02:10:17.858Z,11.90
2019-03-30T02:12:47.633Z,12.87
2019-03-30T02:15:17.271Z,14.80
2019-03-30T02:17:46.678Z,12.33
2019-03-30T02:20:30.414Z,14.93
2019-03-30T02:22:50.206Z,12.87
2019-03-30T02:25:19.530Z,12.17
2019-03-30T02:27:49.084Z,12.97
2019-03-30T02:30:18.641Z,13.33
2019-03-30T02:32:48.248Z,13.47
2019-03-30T02:35:17.647Z,14.17
2019-03-30T02:37:47.253Z,13.93
2019-03-30T02:40:16.651Z,12.73
2019-03-30T02:42:46.000Z,12.73
2019-03-30T02:45:15.339Z,12.57
2019-03-30T02:50:48.106Z,13.63
2019-03-30T02:53:05.527Z,12.30
2019-03-30T02:55:34.922Z,13.33
2019-03-30T02:58:04.560Z,12.43
2019-03-30T03:00:34.113Z,13.07
2019-03-30T03:03:03.741Z,13.50
2019-03-30T03:05:33.132Z,12.83
2019-03-30T03:08:02.689Z,13.87
2019-03-30T03:10:32.138Z,12.90
2019-03-30T03:13:01.612Z,14.10
2019-03-30T03:15:31.056Z,15.77
2019-03-30T03:18:00.487Z,13.67
2019-03-30T03:20:29.936Z,15.03
2019-03-30T03:22:59.472Z,12.47
2019-03-30T03:25:28.823Z,13.60
2019-03-30T03:27:58.166Z,13.37
2019-03-30T03:30:27.491Z,14.53
2019-03-30T03:32:57.103Z,12.60
2019-03-30T03:35:26.503Z,13.43
2019-03-30T03:37:55.865Z,13.57
2019-03-30T03:40:25.199Z,12.83
2019-03-30T03:42:55.512Z,13.17
2019-03-30T03:45:24.904Z,13.60
2019-03-30T03:47:54.550Z,13.07
2019-03-30T03:50:29.923Z,13.23
2019-03-30T03:52:59.461Z,13.30
2019-03-30T03:55:29.962Z,12.10
2019-03-30T03:58:00.211Z,12.67
2019-03-30T04:00:29.885Z,13.43
2019-03-30T04:03:01.000Z,14.00
2019-03-30T04:05:31.560Z,14.87
2019-03-30T04:08:03.120Z,14.27
2019-03-30T04:10:34.251Z,12.83
2019-03-30T04:13:07.249Z,14.63
2019-03-30T04:15:36.683Z,15.03
2019-03-30T04:18:06.316Z,12.10
2019-03-30T04:20:35.723Z,14.57
2019-03-30T04:23:05.155Z,14.00
2019-03-30T04:25:34.574Z,13.83
2019-03-30T04:28:05.118Z,13.90
2019-03-30T04:30:34.593Z,14.73
2019-03-30T04:33:04.045Z,12.93
2019-03-30T04:35:33.453Z,13.87
2019-03-30T04:38:02.862Z,13.93
2019-03-30T04:40:32.291Z,13.57
2019-03-30T04:43:01.802Z,13.33
2019-03-30T04:45:31.281Z,12.90
2019-03-30T04:48:00.718Z,14.53
2019-03-30T04:50:30.113Z,13.73
2019-03-30T04:52:59.603Z,14.33
2019-03-30T04:55:28.942Z,16.87
2019-03-30T04:57:58.612Z,15.17
2019-03-30T05:00:28.062Z,15.67
2019-03-30T05:02:57.427Z,14.87
2019-03-30T05:05:26.770Z,13.27
2019-03-30T05:07:56.429Z,12.17
2019-03-30T05:10:25.790Z,14.63
2019-03-30T05:12:55.204Z,13.30
2019-03-30T05:15:24.568Z,13.33
2019-03-30T05:17:54.166Z,14.17
2019-03-30T05:20:23.567Z,12.70
2019-03-30T05:22:52.896Z,12.73
2019-03-30T05:25:22.318Z,13.33
2019-03-30T05:27:51.731Z,14.20
2019-03-30T05:30:21.286Z,17.40
2019-03-30T05:33:04.607Z,16.90
2019-03-30T05:35:22.103Z,15.93
2019-03-30T05:37:51.479Z,16.13
2019-03-30T05:40:20.810Z,15.53
2019-03-30T05:42:50.327Z,13.20
2019-03-30T05:45:19.738Z,15.03
2019-03-30T05:47:49.079Z,14.03
2019-03-30T05:50:18.506Z,13.23
2019-03-30T05:52:47.887Z,12.70
2019-03-30T05:55:17.876Z,15.33
2019-03-30T05:57:47.822Z,14.83
2019-03-30T06:00:19.021Z,14.03
2019-03-30T06:02:48.519Z,13.90
2019-03-30T06:05:17.960Z,13.13
2019-03-30T06:07:47.496Z,13.67
2019-03-30T06:10:16.892Z,14.13
2019-03-30T06:12:46.573Z,13.47
2019-03-30T06:15:15.920Z,12.47
2019-03-30T06:17:45.299Z,14.13
2019-03-30T06:20:15.761Z,13.33
2019-03-30T06:22:45.444Z,13.87
2019-03-30T06:25:14.927Z,15.00
2019-03-30T06:27:44.322Z,15.90
2019-03-30T06:30:24.486Z,14.20
2019-03-30T06:32:54.051Z,15.17
2019-03-30T06:35:23.703Z,14.87
2019-03-30T06:37:53.141Z,13.10
2019-03-30T06:40:22.664Z,14.67
2019-03-30T06:42:53.063Z,15.10
2019-03-30T06:45:22.463Z,17.60
2019-03-30T06:47:52.783Z,13.23
2019-03-30T06:50:22.403Z,15.50
2019-03-30T06:52:58.119Z,14.13
2019-03-30T06:55:22.893Z,14.53
2019-03-30T06:57:52.580Z,13.90
2019-03-30T07:00:33.612Z,15.80
2019-03-30T07:03:04.967Z,14.20
2019-03-30T07:05:39.227Z,14.43
2019-03-30T07:08:13.136Z,14.47
2019-03-30T07:10:44.239Z,14.60
2019-03-30T07:13:14.758Z,14.40
2019-03-30T07:15:48.188Z,13.97
2019-03-30T07:18:18.536Z,15.23
2019-03-30T07:20:48.835Z,15.47
2019-03-30T07:23:18.311Z,16.57
2019-03-30T07:25:47.739Z,15.90
2019-03-30T07:28:17.100Z,14.60
2019-03-30T07:30:46.676Z,18.27
2019-03-30T07:33:16.060Z,15.30
2019-03-30T07:35:45.660Z,16.03
2019-03-30T07:38:15.075Z,14.40
2019-03-30T07:40:44.494Z,16.63
2019-03-30T07:43:13.825Z,14.13
2019-03-30T07:45:43.435Z,17.73
2019-03-30T07:48:12.826Z,17.73
2019-03-30T07:50:42.171Z,18.07
2019-03-30T07:53:25.683Z,17.30
2019-03-30T07:55:43.744Z,18.33
2019-03-30T07:58:13.186Z,16.43
2019-03-30T08:00:42.826Z,16.77
2019-03-30T08:03:12.237Z,17.97
2019-03-30T08:05:43.362Z,19.03
2019-03-30T08:08:12.756Z,18.03
2019-03-30T08:10:42.134Z,18.97
2019-03-30T08:13:11.479Z,18.67
2019-03-30T08:15:40.893Z,19.20
2019-03-30T08:18:10.350Z,18.63
2019-03-30T08:20:39.746Z,18.00
2019-03-30T08:23:09.606Z,19.53
2019-03-30T08:25:38.937Z,21.03
2019-03-30T08:28:08.273Z,19.77
2019-03-30T08:30:37.685Z,20.43
2019-03-30T08:33:07.375Z,20.70
2019-03-30T08:35:36.786Z,21.07
2019-03-30T08:38:06.450Z,18.43
2019-03-30T08:40:36.003Z,21.17
2019-03-30T08:43:05.923Z,23.23
2019-03-30T08:45:35.295Z,21.43
2019-03-30T08:48:04.685Z,20.47
2019-03-30T08:50:34.114Z,22.10
2019-03-30T08:53:03.873Z,21.40
2019-03-30T08:55:33.287Z,21.27
2019-03-30T08:58:03.124Z,22.10
2019-03-30T09:00:40.170Z,21.50
2019-03-30T09:03:10.187Z,19.83
2019-03-30T09:05:40.249Z,20.93
2019-03-30T09:08:09.816Z,23.93
2019-03-30T09:10:39.286Z,22.13
2019-03-30T09:13:09.062Z,20.77
2019-03-30T09:15:38.702Z,24.53
2019-03-30T09:18:08.203Z,19.63
2019-03-30T09:20:37.611Z,21.13
2019-03-30T09:23:07.243Z,22.17
2019-03-30T09:25:36.581Z,21.17
2019-03-30T09:28:06.957Z,21.67
2019-03-30T09:30:36.387Z,17.00
2019-03-30T09:33:05.875Z,20.37
2019-03-30T09:35:35.577Z,21.77
2019-03-30T09:38:05.962Z,20.43
2019-03-30T09:40:35.619Z,19.70
2019-03-30T09:43:05.831Z,21.43
2019-03-30T09:45:35.329Z,20.00
2019-03-30T09:48:04.991Z,19.70
2019-03-30T09:50:36.135Z,20.87
2019-03-30T09:53:06.213Z,20.87
2019-03-30T09:55:36.005Z,19.20
2019-03-30T09:58:05.675Z,17.47
2019-03-30T10:00:35.908Z,20.43
2019-03-30T10:03:06.287Z,19.40
2019-03-30T10:05:36.038Z,17.80
2019-03-30T10:08:05.442Z,17.00
2019-03-30T10:10:35.143Z,18.30
2019-03-30T10:13:04.761Z,17.77
2019-03-30T10:15:34.325Z,17.13
2019-03-30T10:18:03.759Z,17.07
2019-03-30T10:20:33.218Z,17.60
2019-03-30T10:23:02.923Z,16.90
2019-03-30T10:25:32.743Z,19.47
2019-03-30T10:28:02.348Z,17.00
2019-03-30T10:30:31.708Z,16.83
2019-03-30T10:33:01.876Z,18.43
2019-03-30T10:35:31.407Z,19.83
2019-03-30T10:38:04.552Z,17.97
2019-03-30T10:40:34.004Z,17.47
2019-03-30T10:43:04.645Z,20.27
2019-03-30T10:45:34.131Z,20.70
2019-03-30T10:48:03.779Z,21.33
2019-03-30T10:50:33.374Z,20.90
2019-03-30T10:53:03.281Z,19.07
2019-03-30T10:55:32.665Z,19.23
2019-03-30T10:58:02.461Z,20.73
2019-03-30T11:00:34.430Z,20.60
2019-03-30T11:03:04.104Z,19.53
2019-03-30T11:05:41.013Z,21.50
2019-03-30T11:08:10.772Z,21.93
2019-03-30T11:10:40.222Z,22.50
2019-03-30T11:13:09.658Z,22.23
2019-03-30T11:15:39.358Z,18.87
2019-03-30T11:18:09.837Z,19.33
2019-03-30T11:20:40.253Z,22.57
2019-03-30T11:23:09.753Z,23.47
2019-03-30T11:25:39.403Z,20.63
2019-03-30T11:28:08.821Z,21.03
2019-03-30T11:30:38.255Z,20.87
2019-03-30T11:33:08.042Z,20.90
2019-03-30T11:35:37.484Z,21.87
2019-03-30T11:38:06.917Z,19.53
2019-03-30T11:40:37.430Z,22.90
2019-03-30T11:43:08.200Z,21.97
2019-03-30T11:45:37.655Z,21.17
2019-03-30T11:48:07.153Z,20.67
2019-03-30T11:50:36.559Z,22.43
2019-03-30T11:53:06.137Z,21.53
2019-03-30T11:55:35.797Z,21.40
2019-03-30T11:58:05.310Z,21.87
2019-03-30T12:00:34.814Z,23.17
2019-03-30T12:03:04.552Z,21.63
2019-03-30T12:05:35.023Z,22.63
2019-03-30T12:08:04.519Z,20.13
2019-03-30T12:10:34.764Z,20.90
2019-03-30T12:13:04.635Z,21.70
2019-03-30T12:15:36.696Z,21.97
2019-03-30T12:18:08.043Z,20.57
2019-03-30T12:20:37.525Z,19.50
2019-03-30T12:23:07.004Z,19.97
2019-03-30T12:25:36.756Z,21.83
2019-03-30T12:28:07.271Z,21.77
2019-03-30T12:30:37.036Z,22.30
2019-03-30T12:33:06.782Z,21.87
2019-03-30T12:35:36.251Z,19.27
2019-03-30T12:38:05.765Z,19.77
2019-03-30T12:40:35.471Z,24.10
2019-03-30T12:43:05.175Z,21.17
2019-03-30T12:45:34.811Z,23.87
2019-03-30T12:48:04.951Z,22.10
2019-03-30T12:50:34.441Z,21.30
2019-03-30T12:53:04.151Z,24.37
2019-03-30T12:55:33.563Z,24.60
2019-03-30T12:58:03.203Z,18.87
2019-03-30T13:00:32.683Z,20.77
2019-03-30T13:03:02.827Z,20.23
2019-03-30T13:05:32.531Z,23.77
2019-03-30T13:08:02.133Z,20.97
2019-03-30T13:10:32.005Z,23.20
2019-03-30T13:13:01.743Z,23.37
2019-03-30T13:15:31.409Z,21.43
2019-03-30T13:18:01.204Z,19.97
2019-03-30T13:20:30.807Z,23.03
2019-03-30T13:23:00.241Z,20.43
2019-03-30T13:25:29.890Z,20.60
2019-03-30T13:27:59.244Z,21.30
2019-03-30T13:30:28.670Z,20.67
2019-03-30T13:32:58.115Z,19.07
2019-03-30T13:35:27.709Z,20.60
2019-03-30T13:37:57.126Z,22.20
2019-03-30T13:40:26.573Z,19.73
2019-03-30T13:42:55.963Z,19.57
2019-03-30T13:45:25.588Z,19.70
2019-03-30T13:47:55.023Z,19.63
2019-03-30T13:50:24.376Z,19.70
2019-03-30T13:52:54.923Z,18.93
2019-03-30T13:55:25.193Z,18.33
2019-03-30T13:57:54.627Z,19.53
2019-03-30T14:00:24.028Z,19.97
2019-03-30T14:02:53.852Z,21.60
2019-03-30T14:05:23.454Z,18.77
2019-03-30T14:07:52.845Z,19.83
2019-03-30T14:10:22.323Z,20.13
2019-03-30T14:12:51.666Z,18.43
2019-03-30T14:15:21.135Z,20.47
2019-03-30T14:17:50.806Z,18.60
2019-03-30T14:20:20.170Z,19.00
2019-03-30T14:22:49.544Z,20.03
2019-03-30T14:25:19.012Z,18.00
2019-03-30T14:27:48.646Z,16.87
2019-03-30T14:30:18.048Z,17.90
2019-03-30T14:32:47.415Z,18.20
2019-03-30T14:35:16.915Z,18.40
2019-03-30T14:37:46.331Z,16.17
2019-03-30T14:40:15.935Z,19.60
2019-03-30T14:42:45.533Z,17.17
2019-03-30T14:45:15.069Z,19.10
2019-03-30T14:47:44.471Z,16.73
2019-03-30T14:50:14.325Z,16.83
2019-03-30T14:52:49.692Z,16.00
2019-03-30T14:55:23.805Z,15.93
2019-03-30T14:57:53.576Z,17.27
2019-03-30T15:00:23.221Z,16.80
2019-03-30T15:02:52.782Z,19.67
2019-03-30T15:05:22.198Z,18.10
2019-03-30T15:07:51.586Z,18.87
2019-03-30T15:10:21.414Z,18.87
2019-03-30T15:12:50.926Z,18.90
2019-03-30T15:15:20.632Z,18.43
2019-03-30T15:17:50.189Z,18.20
2019-03-30T15:20:19.991Z,16.20
2019-03-30T15:22:51.131Z,18.67
2019-03-30T15:25:20.499Z,19.03
2019-03-30T15:27:49.962Z,16.63
2019-03-30T15:30:19.419Z,13.90
2019-03-30T15:32:50.002Z,16.07
2019-03-30T15:35:19.793Z,15.73
2019-03-30T15:37:49.212Z,16.00
2019-03-30T15:40:18.945Z,15.27
2019-03-30T15:42:48.351Z,14.83
2019-03-30T15:45:18.074Z,14.33
2019-03-30T15:47:47.488Z,16.10
2019-03-30T15:50:17.461Z,14.87
2019-03-30T15:52:46.914Z,16.60
2019-03-30T15:55:16.328Z,15.67
2019-03-30T15:57:45.849Z,15.93
2019-03-30T16:00:17.015Z,14.17
2019-03-30T16:02:46.459Z,12.67
2019-03-30T16:05:16.471Z,11.77
2019-03-30T16:07:46.121Z,12.27
2019-03-30T16:10:15.843Z,14.93
2019-03-30T16:12:45.334Z,14.83
2019-03-30T16:15:14.839Z,13.77
2019-03-30T16:17:44.267Z,14.50
2019-03-30T16:20:14.737Z,14.43
2019-03-30T16:22:45.078Z,11.33
2019-03-30T16:25:14.748Z,11.90
2019-03-30T16:27:44.178Z,11.57
2019-03-30T16:30:14.335Z,15.40
2019-03-30T16:32:43.746Z,13.80
2019-03-30T16:35:13.569Z,13.37
2019-03-30T16:37:43.074Z,14.67
2019-03-30T16:40:12.907Z,13.40
2019-03-30T16:42:44.618Z,10.53
2019-03-30T16:45:15.146Z,9.90
2019-03-30T16:47:53.106Z,8.90
2019-03-30T16:50:22.709Z,9.60
2019-03-30T16:52:52.153Z,11.43
2019-03-30T16:55:22.696Z,10.40
2019-03-30T16:57:52.067Z,9.60
2019-03-30T17:00:21.576Z,9.73
2019-03-30T17:02:50.939Z,9.67
2019-03-30T17:05:20.542Z,9.10
2019-03-30T17:07:50.026Z,8.33
2019-03-30T17:10:20.292Z,7.57
2019-03-30T17:12:50.734Z,9.60
2019-03-30T17:15:20.223Z,9.47
2019-03-30T17:17:49.855Z,10.20
2019-03-30T17:20:19.308Z,9.97
2019-03-30T17:22:48.734Z,11.00
2019-03-30T17:25:18.204Z,9.00
2019-03-30T17:27:58.145Z,8.30
2019-03-30T17:30:18.971Z,10.40
2019-03-30T17:32:48.538Z,8.27
2019-03-30T17:35:17.982Z,9.27
2019-03-30T17:37:47.519Z,8.33
2019-03-30T17:40:18.013Z,8.43
2019-03-30T17:42:47.596Z,8.40
2019-03-30T17:45:17.225Z,10.07
2019-03-30T17:47:46.630Z,9.97
2019-03-30T17:50:16.486Z,8.63
2019-03-30T17:52:47.053Z,10.20
2019-03-30T17:55:16.561Z,8.43
2019-03-30T17:57:46.052Z,9.63
2019-03-30T18:00:17.830Z,11.87
2019-03-30T18:02:47.255Z,10.13
2019-03-30T18:05:17.836Z,9.67
2019-03-30T18:07:47.413Z,12.27
2019-03-30T18:10:17.031Z,13.60
2019-03-30T18:12:46.513Z,11.47
2019-03-30T18:15:16.762Z,10.03
2019-03-30T18:17:46.246Z,9.07
2019-03-30T18:20:15.834Z,11.47
2019-03-30T18:22:45.587Z,10.37
2019-03-30T18:25:15.141Z,10.57
2019-03-30T18:27:45.200Z,11.37
2019-03-30T18:30:15.293Z,12.63
2019-03-30T18:32:44.844Z,12.07
2019-03-30T18:35:14.833Z,12.07
2019-03-30T18:37:44.391Z,12.63
2019-03-30T18:40:17.193Z,12.70
2019-03-30T18:42:46.699Z,12.20
2019-03-30T18:45:30.803Z,12.30
2019-03-30T18:48:06.298Z,12.20
2019-03-30T18:50:35.838Z,11.40
2019-03-30T18:53:05.565Z,12.03
2019-03-30T18:55:35.570Z,10.10
2019-03-30T18:58:05.245Z,11.40
2019-03-30T19:00:34.723Z,10.73
2019-03-30T19:03:04.700Z,12.43
2019-03-30T19:05:34.259Z,11.60
2019-03-30T19:08:04.595Z,10.17
2019-03-30T19:10:34.361Z,11.73
2019-03-30T19:13:04.744Z,11.77
2019-03-30T19:15:34.332Z,10.80
2019-03-30T19:18:04.090Z,11.53
2019-03-30T19:20:33.826Z,10.33
2019-03-30T19:23:03.341Z,11.40
2019-03-30T19:25:32.953Z,11.77
2019-03-30T19:28:02.890Z,11.40
2019-03-30T19:30:32.517Z,14.33
2019-03-30T19:33:02.720Z,11.47
2019-03-30T19:35:32.260Z,10.00
2019-03-30T19:38:02.134Z,10.57
2019-03-30T19:40:31.633Z,10.60
2019-03-30T19:43:02.008Z,13.60
2019-03-30T19:45:31.497Z,14.73
2019-03-30T19:48:01.204Z,17.33
2019-03-30T19:50:30.675Z,11.60
2019-03-30T19:53:00.147Z,9.90
2019-03-30T19:55:30.377Z,11.37
2019-03-30T19:58:00.906Z,10.07
2019-03-30T20:00:31.328Z,11.67
2019-03-30T20:03:00.877Z,14.20
2019-03-30T20:05:30.455Z,14.67
2019-03-30T20:08:11.541Z,15.57
2019-03-30T20:10:31.187Z,17.37
2019-03-30T20:13:03.044Z,16.10
2019-03-30T20:15:32.530Z,19.80
2019-03-30T20:18:02.207Z,13.70
2019-03-30T20:20:31.682Z,13.87
2019-03-30T20:23:01.397Z,12.57
2019-03-30T20:25:31.899Z,13.03
2019-03-30T20:28:01.887Z,12.73
2019-03-30T20:30:32.326Z,13.13
2019-03-30T20:33:02.013Z,12.57
2019-03-30T20:35:31.483Z,14.23
2019-03-30T20:38:01.248Z,14.87
2019-03-30T20:40:30.838Z,13.63
2019-03-30T20:43:03.268Z,12.77
2019-03-30T20:45:32.790Z,13.47
2019-03-30T20:48:03.027Z,14.30
2019-03-30T20:50:32.396Z,14.40
2019-03-30T20:53:02.349Z,15.40
2019-03-30T20:55:33.897Z,12.70
2019-03-30T20:58:03.603Z,15.40
2019-03-30T21:00:33.157Z,14.07
2019-03-30T21:03:03.126Z,11.50
2019-03-30T21:05:32.854Z,14.10
2019-03-30T21:08:02.733Z,14.33
2019-03-30T21:10:33.199Z,12.43
2019-03-30T21:13:02.981Z,11.73
2019-03-30T21:15:32.763Z,13.03
2019-03-30T21:18:02.540Z,12.70
2019-03-30T21:20:31.984Z,13.83
2019-03-30T21:23:01.858Z,11.17
2019-03-30T21:25:32.540Z,12.17
2019-03-30T21:28:02.395Z,12.47
2019-03-30T21:30:32.102Z,11.67
2019-03-30T21:33:03.204Z,12.67
2019-03-30T21:35:32.904Z,13.10
2019-03-30T21:38:05.795Z,11.37
2019-03-30T21:40:35.841Z,11.03
2019-03-30T21:43:05.884Z,12.97
2019-03-30T21:45:35.420Z,12.77
2019-03-30T21:48:06.526Z,11.37
2019-03-30T21:50:35.903Z,13.47
2019-03-30T21:53:06.057Z,10.33
2019-03-30T21:55:35.717Z,11.43
2019-03-30T21:58:05.220Z,11.00
2019-03-30T22:00:39.229Z,11.70
2019-03-30T22:03:08.797Z,12.00
2019-03-30T22:05:38.430Z,11.53
2019-03-30T22:08:08.289Z,10.97
2019-03-30T22:10:38.736Z,12.97
2019-03-30T22:13:09.238Z,12.33
2019-03-30T22:15:38.636Z,11.00
2019-03-30T22:18:08.240Z,9.90
2019-03-30T22:20:37.628Z,11.33
2019-03-30T22:23:07.120Z,11.20
2019-03-30T22:25:36.641Z,11.57
2019-03-30T22:28:06.096Z,10.23
2019-03-30T22:30:35.772Z,12.00
2019-03-30T22:33:05.388Z,12.30
2019-03-30T22:35:34.807Z,9.67
2019-03-30T22:38:04.413Z,11.27
2019-03-30T22:40:33.834Z,11.57
2019-03-30T22:43:03.926Z,12.77
2019-03-30T22:45:33.346Z,11.30
2019-03-30T22:48:04.195Z,11.30
2019-03-30T22:50:34.697Z,12.03
2019-03-30T22:53:04.295Z,11.80
2019-03-30T22:55:33.687Z,10.97
2019-03-30T22:58:03.396Z,10.93
2019-03-30T23:00:38.861Z,13.40
2019-03-30T23:03:11.303Z,11.00
2019-03-30T23:05:40.776Z,11.20
2019-03-30T23:08:10.179Z,11.10
2019-03-30T23:10:40.564Z,12.83
2019-03-30T23:13:10.116Z,11.13
2019-03-30T23:15:39.587Z,12.83
2019-03-30T23:18:09.018Z,10.77
2019-03-30T23:20:38.604Z,10.87
2019-03-30T23:23:08.242Z,11.07
2019-03-30T23:25:37.833Z,11.23
2019-03-30T23:28:07.384Z,12.10
2019-03-30T23:30:37.035Z,11.03
2019-03-30T23:33:06.452Z,10.43
2019-03-30T23:35:36.057Z,11.67
2019-03-30T23:38:06.217Z,11.60
2019-03-30T23:40:35.703Z,10.87
2019-03-30T23:43:05.633Z,11.80
2019-03-30T23:45:35.090Z,11.63
2019-03-30T23:48:04.909Z,10.90
2019-03-30T23:50:34.337Z,11.33
2019-03-30T23:53:07.185Z,10.73
2019-03-30T23:55:35.021Z,10.83
2019-03-30T23:58:04.644Z,11.30
